Time;durP1;ratioP1;P1;durP2;ratioP2;P2;SDS_P1;SDS_P2;PMS_P1;PMS_P2;Temp;Humidity;BMP_temperature;BMP_pressure;BME280_temperature;BME280_humidity;BME280_pressure;Samples;Min_cycle;Max_cycle;Signal;HPM_P1;HPM_P2
2022/05/16 00:00:25;;;;;;;14.45;8.73;;;;;;;18.35;50.82;101292.94;4965478;28;20500;-71
2022/05/16 00:02:51;;;;;;;13.15;8.57;;;;;;;18.34;50.79;101285.94;4973253;28;20502;-71
2022/05/16 00:05:17;;;;;;;14.38;8.45;;;;;;;18.31;51.17;101285.94;4971201;28;20023;-71
2022/05/16 00:07:42;;;;;;;17.90;9.27;;;;;;;18.27;50.96;101284.19;4964626;28;20027;-71
2022/05/16 00:10:08;;;;;;;16.33;8.85;;;;;;;18.24;51.40;101282.41;4966560;28;20272;-71
2022/05/16 00:12:34;;;;;;;14.23;9.18;;;;;;;18.17;51.44;101284.16;4973011;28;20046;-71
2022/05/16 00:14:59;;;;;;;20.90;9.45;;;;;;;18.15;51.34;101279.78;4955223;28;20411;-71
2022/05/16 00:17:25;;;;;;;16.63;9.60;;;;;;;18.16;51.01;101276.25;4971804;28;20416;-71
2022/05/16 00:19:50;;;;;;;14.75;8.95;;;;;;;18.10;51.29;101277.13;4965869;28;21044;-71
2022/05/16 00:22:15;;;;;;;18.80;9.45;;;;;;;18.08;51.54;101278.91;4959735;28;20119;-71
2022/05/16 00:24:43;;;;;;;16.63;9.20;;;;;;;18.05;51.31;101271.88;4969141;28;20045;-71
2022/05/16 00:27:09;;;;;;;14.45;9.40;;;;;;;17.96;51.70;101268.34;4970682;28;20181;-71
2022/05/16 00:29:35;;;;;;;18.38;9.95;;;;;;;17.92;52.17;101261.34;4967218;28;20028;-71
2022/05/16 00:32:00;;;;;;;15.73;9.43;;;;;;;17.92;51.63;101267.50;4964638;28;20116;-71
2022/05/16 00:34:38;;;;;;;16.90;9.40;;;;;;;17.91;52.01;101257.81;4959693;28;20054;-71
2022/05/16 00:37:04;;;;;;;15.18;8.95;;;;;;;17.89;52.11;101260.41;4947035;28;20077;-71
2022/05/16 00:39:29;;;;;;;16.00;8.82;;;;;;;17.90;51.95;101256.94;4952614;28;20043;-71
2022/05/16 00:41:55;;;;;;;15.32;9.13;;;;;;;17.81;52.21;101254.25;4964681;28;20029;-71
2022/05/16 00:44:21;;;;;;;14.13;9.35;;;;;;;17.82;53.07;101261.28;4956345;28;20486;-72
2022/05/16 00:46:48;;;;;;;18.10;9.23;;;;;;;17.77;52.44;101259.53;4963322;28;20031;-71
2022/05/16 00:49:20;;;;;;;16.85;9.40;;;;;;;17.69;52.39;101264.81;4960754;28;20039;-71
2022/05/16 00:52:00;;;;;;;19.73;9.80;;;;;;;17.72;52.41;101262.16;4974566;28;20035;-71
2022/05/16 00:54:34;;;;;;;16.67;9.80;;;;;;;17.70;52.47;101267.44;4965918;28;20035;-71
2022/05/16 00:57:04;;;;;;;16.67;9.38;;;;;;;17.67;53.04;101264.81;4974378;28;20081;-71
2022/05/16 00:59:53;;;;;;;17.83;9.52;;;;;;;17.73;52.83;101261.31;4963864;28;20030;-71
2022/05/16 01:05:11;;;;;;;16.23;9.32;;;;;;;17.66;53.42;101241.97;4947382;28;20098;-71
2022/05/16 01:07:43;;;;;;;14.13;8.75;;;;;;;17.62;53.32;101248.09;4968616;28;20026;-71
2022/05/16 01:10:12;;;;;;;16.50;9.68;;;;;;;17.58;53.33;101248.09;4964539;28;20032;-71
2022/05/16 01:12:40;;;;;;;17.00;9.13;;;;;;;17.58;53.44;101242.84;4963627;28;20027;-71
2022/05/16 01:15:10;;;;;;;15.93;8.93;;;;;;;17.52;53.84;101241.97;4969505;28;20391;-71
2022/05/16 01:17:35;;;;;;;17.65;9.70;;;;;;;17.47;53.71;101248.97;4974250;28;20030;-71
2022/05/16 01:20:01;;;;;;;20.77;10.13;;;;;;;17.50;54.17;101248.97;4969985;28;21644;-71
2022/05/16 01:22:31;;;;;;;17.95;9.85;;;;;;;17.45;53.67;101250.75;4956542;28;20470;-71
2022/05/16 01:25:01;;;;;;;19.27;9.52;;;;;;;17.38;54.50;101244.56;4966929;28;20038;-71
2022/05/16 01:27:26;;;;;;;17.00;9.80;;;;;;;17.38;54.53;101254.25;4953569;28;20035;-71
2022/05/16 01:29:52;;;;;;;16.30;11.18;;;;;;;17.38;54.57;101256.88;4970350;28;20106;-71
2022/05/16 01:32:18;;;;;;;20.45;10.38;;;;;;;17.35;54.69;101260.38;4967272;28;20478;-71
2022/05/16 01:34:44;;;;;;;22.17;10.63;;;;;;;17.33;54.50;101255.97;4955574;28;20146;-71
2022/05/16 01:37:09;;;;;;;18.63;10.43;;;;;;;17.31;54.83;101252.47;4954569;28;20849;-71
2022/05/16 01:39:35;;;;;;;19.75;10.93;;;;;;;17.26;54.86;101246.28;4965168;28;20047;-71
2022/05/16 01:42:00;;;;;;;15.80;10.55;;;;;;;17.23;54.67;101243.66;4965094;28;20529;-71
2022/05/16 01:44:25;;;;;;;19.02;10.63;;;;;;;17.15;54.87;101236.63;4953374;28;20031;-71
2022/05/16 01:46:50;;;;;;;16.90;10.27;;;;;;;17.17;54.78;101242.75;4973677;28;20398;-71
2022/05/16 01:49:16;;;;;;;16.38;11.35;;;;;;;17.09;55.14;101241.88;4967560;28;20474;-71
2022/05/16 01:51:41;;;;;;;16.60;11.07;;;;;;;17.10;55.08;101232.22;4973046;28;21201;-71
2022/05/16 01:54:07;;;;;;;18.80;10.98;;;;;;;17.04;55.17;101239.19;4967306;28;20027;-71
2022/05/16 01:56:34;;;;;;;17.42;10.55;;;;;;;17.03;55.32;101228.66;4968705;28;20054;-71
2022/05/16 01:59:01;;;;;;;17.70;10.95;;;;;;;17.03;55.85;101226.03;4973431;28;20023;-71
2022/05/16 02:01:27;;;;;;;15.68;10.55;;;;;;;17.00;56.00;101221.66;4952601;28;20383;-71
2022/05/16 02:03:52;;;;;;;17.88;10.68;;;;;;;16.99;56.34;101219.91;4973249;28;20553;-71
2022/05/16 02:06:18;;;;;;;18.83;11.10;;;;;;;17.00;56.13;101224.28;4958759;28;20554;-71
2022/05/16 02:08:44;;;;;;;19.15;11.10;;;;;;;16.97;55.88;101226.03;4964357;28;20058;-71
2022/05/16 02:11:09;;;;;;;18.15;10.63;;;;;;;16.91;56.34;101218.09;4971303;28;20065;-71
2022/05/16 02:13:38;;;;;;;19.00;10.48;;;;;;;16.92;56.22;101219.88;4962067;28;20065;-71
2022/05/16 02:16:04;;;;;;;17.77;11.32;;;;;;;16.86;56.45;101212.81;4960214;28;20078;-71
2022/05/16 02:18:29;;;;;;;19.63;10.90;;;;;;;16.89;56.58;101215.47;4949443;28;20065;-71
2022/05/16 02:24:38;;;;;;;19.10;11.38;;;;;;;16.82;56.79;101211.03;4968406;28;20077;-71
2022/05/16 02:26:24;;;;;;;19.67;11.07;;;;;;;16.80;57.19;101208.41;4959056;28;20041;-71
2022/05/16 02:28:49;;;;;;;19.08;10.82;;;;;;;16.76;56.77;101206.63;4973040;28;20030;-71
2022/05/16 02:31:15;;;;;;;16.00;10.38;;;;;;;16.69;57.18;101202.19;4968509;28;20026;-71
2022/05/16 02:33:40;;;;;;;17.33;11.45;;;;;;;16.66;57.25;101204.81;4972763;28;20038;-71
2022/05/16 02:36:05;;;;;;;17.75;10.70;;;;;;;16.64;57.47;101199.56;4956201;28;20116;-71
2022/05/16 02:38:31;;;;;;;17.58;10.70;;;;;;;16.62;57.31;101198.66;4956438;28;20055;-71
2022/05/16 02:40:56;;;;;;;18.13;10.93;;;;;;;16.58;57.65;101189.00;4971477;28;20023;-71
2022/05/16 02:43:21;;;;;;;17.20;10.80;;;;;;;16.58;57.73;101190.75;4957658;28;20106;-71
2022/05/16 02:45:46;;;;;;;18.02;11.20;;;;;;;16.56;57.76;101189.88;4956429;28;20173;-71
2022/05/16 02:48:12;;;;;;;18.08;10.80;;;;;;;16.53;57.78;101196.00;4972630;28;20041;-71
2022/05/16 02:50:37;;;;;;;19.25;11.23;;;;;;;16.55;57.88;101191.59;4949277;28;20397;-71
2022/05/16 02:53:02;;;;;;;19.77;11.25;;;;;;;16.52;58.38;101183.72;4966177;28;20046;-71
2022/05/16 02:55:29;;;;;;;21.23;11.38;;;;;;;16.49;57.90;101173.19;4972294;28;20037;-71
2022/05/16 02:57:55;;;;;;;18.70;11.30;;;;;;;16.46;58.43;101176.66;4963715;28;20030;-71
2022/05/16 03:00:20;;;;;;;18.58;11.35;;;;;;;16.43;58.22;101166.13;4968741;28;20042;-71
2022/05/16 03:02:46;;;;;;;17.60;11.50;;;;;;;16.43;58.36;101168.75;4965892;28;20015;-71
2022/05/16 03:05:12;;;;;;;21.52;11.63;;;;;;;16.40;58.42;101166.13;4959744;28;20039;-70
2022/05/16 03:07:39;;;;;;;19.08;11.25;;;;;;;16.40;58.45;101168.75;4958801;28;20023;-71
2022/05/16 03:10:05;;;;;;;20.08;11.30;;;;;;;16.41;58.43;101160.00;4967097;28;20027;-71
2022/05/16 03:12:30;;;;;;;18.35;11.63;;;;;;;16.41;58.96;101157.38;4966117;28;20031;-71
2022/05/16 03:14:56;;;;;;;19.08;10.90;;;;;;;16.40;58.71;101158.22;4964559;28;20154;-71
2022/05/16 03:17:23;;;;;;;17.10;10.77;;;;;;;16.37;58.81;101155.59;4967883;28;20078;-71
2022/05/16 03:19:48;;;;;;;19.13;11.55;;;;;;;16.37;59.01;101149.47;4954682;28;20113;-71
2022/05/16 03:22:13;;;;;;;20.08;11.13;;;;;;;16.30;58.86;101159.94;4970273;28;20074;-71
2022/05/16 03:24:39;;;;;;;19.13;11.82;;;;;;;16.32;58.92;101165.19;4962600;28;20492;-71
2022/05/16 03:27:05;;;;;;;21.10;11.90;;;;;;;16.27;59.25;101165.19;4971746;28;20027;-71
2022/05/16 03:29:31;;;;;;;18.35;11.55;;;;;;;16.27;59.29;101170.44;4962833;28;20521;-71
2022/05/16 03:31:56;;;;;;;18.13;11.63;;;;;;;16.27;59.64;101169.56;4971382;28;20050;-71
2022/05/16 03:34:21;;;;;;;17.20;11.50;;;;;;;16.24;59.92;101165.16;4952683;28;20030;-71
2022/05/16 03:36:47;;;;;;;18.30;11.90;;;;;;;16.22;59.79;101168.66;4967794;28;20101;-71
2022/05/16 03:41:57;;;;;;;19.67;11.55;;;;;;;16.17;59.84;101158.97;4969488;28;20046;-71
2022/05/16 03:44:23;;;;;;;19.33;12.05;;;;;;;16.16;60.28;101170.41;4958625;28;20030;-71
2022/05/16 03:46:48;;;;;;;16.70;11.05;;;;;;;16.11;60.49;101164.22;4968169;28;20038;-71
2022/05/16 03:49:13;;;;;;;20.40;11.98;;;;;;;16.16;59.97;101165.13;4965445;28;20039;-71
2022/05/16 03:51:39;;;;;;;24.45;12.52;;;;;;;16.15;60.26;101166.00;4967491;28;20029;-71
2022/05/16 03:54:05;;;;;;;18.80;11.40;;;;;;;16.12;60.46;101165.09;4963742;28;20533;-71
2022/05/16 03:56:31;;;;;;;20.25;11.48;;;;;;;16.11;60.68;101169.47;4966660;28;20058;-72
2022/05/16 03:58:57;;;;;;;18.58;11.55;;;;;;;16.12;60.53;101159.81;4964416;28;20479;-71
2022/05/16 04:01:23;;;;;;;19.60;11.70;;;;;;;16.08;60.55;101165.97;4971334;28;20034;-71
2022/05/16 04:03:48;;;;;;;20.13;11.80;;;;;;;16.03;61.09;101165.03;4956891;28;20027;-71
2022/05/16 04:06:14;;;;;;;19.60;11.77;;;;;;;16.04;60.59;101162.41;4948177;28;20046;-71
2022/05/16 04:08:42;;;;;;;18.63;11.55;;;;;;;16.04;61.17;101157.16;4971462;28;20027;-71
2022/05/16 04:11:07;;;;;;;17.15;11.55;;;;;;;16.01;61.27;101161.53;4962634;28;20078;-71
2022/05/16 04:13:33;;;;;;;18.02;11.20;;;;;;;16.01;61.55;101154.53;4969850;28;20026;-71
2022/05/16 04:15:58;;;;;;;19.17;11.50;;;;;;;16.00;61.51;101165.91;4961282;28;20561;-71
2022/05/16 04:18:24;;;;;;;17.88;11.05;;;;;;;16.01;61.52;101164.16;4959938;28;20435;-71
2022/05/16 04:20:49;;;;;;;17.73;11.23;;;;;;;16.01;61.86;101162.41;4963534;28;20618;-71
2022/05/16 04:23:14;;;;;;;16.95;10.43;;;;;;;16.02;62.03;101169.44;4960247;28;20031;-71
2022/05/16 04:25:40;;;;;;;19.90;11.25;;;;;;;16.03;62.03;101175.56;4955408;28;20054;-71
2022/05/16 04:28:07;;;;;;;16.80;11.18;;;;;;;16.03;61.70;101172.94;4967743;28;20031;-71
2022/05/16 04:30:34;;;;;;;20.23;11.90;;;;;;;16.03;62.09;101176.41;4965617;28;20061;-73
2022/05/16 04:33:00;;;;;;;19.70;10.95;;;;;;;16.07;62.09;101172.94;4947914;28;20038;-72
2022/05/16 04:35:25;;;;;;;18.55;10.90;;;;;;;16.08;62.42;101163.34;4924647;29;20031;-71
2022/05/16 04:37:51;;;;;;;18.50;10.93;;;;;;;16.10;62.02;101170.34;4957759;28;20105;-71
2022/05/16 04:40:17;;;;;;;17.70;11.45;;;;;;;16.08;62.27;101174.72;4951098;28;20598;-71
2022/05/16 04:42:44;;;;;;;19.33;11.57;;;;;;;16.11;62.26;101176.50;4948813;28;20081;-71
2022/05/16 04:45:25;;;;;;;19.83;11.05;;;;;;;16.17;61.56;101172.13;4972289;28;20577;-71
2022/05/16 04:47:53;;;;;;;20.63;11.68;;;;;;;16.21;62.65;101174.81;4967447;28;20023;-71
2022/05/16 04:50:23;;;;;;;19.52;11.25;;;;;;;16.20;62.59;101179.16;4974647;28;20051;-71
2022/05/16 04:52:49;;;;;;;19.92;11.30;;;;;;;16.26;62.52;101179.19;4969450;28;20023;-71
2022/05/16 04:55:15;;;;;;;21.80;12.15;;;;;;;16.29;62.86;101183.59;4974579;28;20081;-71
2022/05/16 04:57:41;;;;;;;22.70;12.07;;;;;;;16.34;62.40;101174.00;4965326;28;20086;-71
2022/05/16 05:00:08;;;;;;;21.20;11.85;;;;;;;16.34;62.96;101185.38;4964707;28;20490;-71
2022/05/16 05:02:33;;;;;;;20.10;11.65;;;;;;;16.40;62.89;101178.41;4972533;28;20023;-71
2022/05/16 05:04:59;;;;;;;20.55;12.20;;;;;;;16.42;63.42;101176.66;4964880;28;20069;-71
2022/05/16 05:07:25;;;;;;;20.25;12.48;;;;;;;16.47;62.58;101188.09;4974229;28;20027;-71
2022/05/16 05:15:19;;;;;;;19.10;12.70;;;;;;;16.63;63.50;101175.88;4967991;28;20117;-71
2022/05/16 05:17:45;;;;;;;19.38;11.52;;;;;;;16.66;63.81;101173.25;4970982;28;20113;-71
2022/05/16 05:20:14;;;;;;;22.33;12.15;;;;;;;16.71;64.10;101176.75;4953218;28;20499;-72
2022/05/16 05:22:44;;;;;;;26.23;13.40;;;;;;;16.74;64.49;101184.66;4973705;28;20054;-71
2022/05/16 05:25:12;;;;;;;24.25;12.88;;;;;;;16.79;64.49;101184.72;4966951;28;20024;-71
2022/05/16 05:27:39;;;;;;;22.20;12.60;;;;;;;16.84;63.97;101189.13;4973897;28;20057;-72
2022/05/16 05:30:13;;;;;;;19.98;12.70;;;;;;;16.89;64.68;101188.25;4961795;28;20039;-72
2022/05/16 05:32:38;;;;;;;25.25;13.70;;;;;;;16.92;64.87;101183.03;4953685;29;20033;-71
2022/05/16 05:35:05;;;;;;;27.15;13.40;;;;;;;16.96;65.26;101176.88;4966317;28;20125;-71
2022/05/16 05:37:31;;;;;;;25.08;12.73;;;;;;;16.99;65.42;101177.78;4961751;28;20632;-71
2022/05/16 05:40:00;;;;;;;21.45;13.32;;;;;;;17.07;64.90;101180.41;4968280;28;20098;-71
2022/05/16 05:42:26;;;;;;;23.25;13.85;;;;;;;17.13;65.56;101179.53;4973542;28;20050;-71
2022/05/16 05:44:52;;;;;;;26.33;13.98;;;;;;;17.21;65.61;101188.34;4968376;28;20030;-72
2022/05/16 05:47:17;;;;;;;26.27;14.18;;;;;;;17.27;64.26;101192.75;4959591;28;20455;-71
2022/05/16 05:49:43;;;;;;;27.60;15.10;;;;;;;17.31;65.04;101198.03;4971481;28;20039;-72
2022/05/16 05:52:09;;;;;;;28.05;14.88;;;;;;;17.37;63.35;101199.78;4973456;28;20118;-72
2022/05/16 05:54:34;;;;;;;27.90;15.02;;;;;;;17.42;63.46;101203.28;4968048;28;20107;-71
2022/05/16 05:57:00;;;;;;;26.15;14.85;;;;;;;17.46;64.96;101209.44;4965766;28;20057;-72
2022/05/16 05:59:25;;;;;;;25.67;15.40;;;;;;;17.52;64.20;101201.53;4973240;28;20041;-71
2022/05/16 06:01:50;;;;;;;28.65;15.30;;;;;;;17.55;63.92;101209.44;4963574;28;20027;-72
2022/05/16 06:04:16;;;;;;;25.30;15.70;;;;;;;17.56;63.26;101211.22;4957929;28;20118;-72
2022/05/16 06:06:43;;;;;;;27.13;14.80;;;;;;;17.60;63.35;101212.97;4962887;28;20042;-72
2022/05/16 06:09:08;;;;;;;27.42;15.07;;;;;;;17.62;62.54;101212.97;4973219;28;20045;-72
2022/05/16 06:11:34;;;;;;;26.13;14.80;;;;;;;17.66;63.56;101206.84;4957321;28;20483;-72
2022/05/16 06:13:59;;;;;;;29.23;15.05;;;;;;;17.70;63.81;101213.88;4962346;28;20438;-72
2022/05/16 06:16:24;;;;;;;26.23;15.00;;;;;;;17.76;62.82;101213.84;4967141;28;20106;-72
2022/05/16 06:18:49;;;;;;;31.73;16.25;;;;;;;17.83;64.24;101223.53;4955719;28;20452;-72
2022/05/16 06:21:15;;;;;;;24.88;15.05;;;;;;;17.90;60.30;101225.31;4972911;28;20030;-72
2022/05/16 06:23:40;;;;;;;26.00;14.07;;;;;;;17.97;59.94;101225.28;4973000;28;20022;-72
2022/05/16 06:26:05;;;;;;;26.80;14.20;;;;;;;18.02;60.35;101231.47;4961743;28;20031;-72
2022/05/16 06:28:37;;;;;;;23.33;13.93;;;;;;;18.08;60.65;101226.16;4971185;28;20498;-72
2022/05/16 06:31:03;;;;;;;30.33;14.60;;;;;;;18.12;59.97;101214.75;4953639;28;20038;-72
2022/05/16 06:33:30;;;;;;;28.67;14.02;;;;;;;18.16;59.90;101224.41;4952360;28;20035;-71
2022/05/16 06:35:57;;;;;;;25.45;14.07;;;;;;;18.19;60.11;101229.66;4964644;28;20027;-71
2022/05/16 06:38:28;;;;;;;27.52;14.77;;;;;;;18.21;59.99;101227.91;4967765;28;20058;-71
2022/05/16 06:40:55;;;;;;;24.02;13.23;;;;;;;18.22;59.72;101224.38;4963745;28;20034;-71
2022/05/16 06:43:23;;;;;;;24.55;12.73;;;;;;;18.25;59.49;101237.56;4970734;28;20018;-72
2022/05/16 06:45:49;;;;;;;24.40;14.10;;;;;;;18.29;58.89;101237.56;4954565;28;20027;-71
2022/05/16 06:48:15;;;;;;;25.77;12.80;;;;;;;18.32;59.57;101241.09;4962231;28;20030;-72
2022/05/16 06:50:41;;;;;;;23.83;13.18;;;;;;;18.34;59.35;101241.94;4972605;28;20400;-71
2022/05/16 06:53:12;;;;;;;23.13;13.43;;;;;;;18.37;59.53;101234.00;4955909;28;20402;-72
2022/05/16 06:55:37;;;;;;;25.67;12.95;;;;;;;18.42;60.07;101236.63;5330834;23;20154;-71
2022/05/16 06:58:02;;;;;;;24.63;13.18;;;;;;;18.46;59.68;101243.66;4948573;28;20558;-71
2022/05/16 07:00:28;;;;;;;26.23;13.93;;;;;;;18.54;60.54;101241.91;4952075;28;20300;-72
2022/05/16 07:02:54;;;;;;;26.55;14.05;;;;;;;18.59;60.10;101245.38;4952923;28;20031;-71
2022/05/16 07:05:19;;;;;;;27.95;13.98;;;;;;;18.62;59.69;101244.50;4949050;28;20027;-72
2022/05/16 07:07:44;;;;;;;30.70;14.25;;;;;;;18.64;59.21;101257.69;4952217;28;20434;-72
2022/05/16 07:10:10;;;;;;;29.73;13.60;;;;;;;18.68;59.90;101255.03;4952917;28;20019;-71
2022/05/16 07:12:36;;;;;;;27.58;13.23;;;;;;;18.71;59.17;101255.03;4951969;28;20082;-71
2022/05/16 07:15:02;;;;;;;25.00;12.85;;;;;;;18.72;60.24;101242.72;4952765;28;20019;-71
2022/05/16 07:17:27;;;;;;;23.52;12.77;;;;;;;18.75;60.15;101256.75;4952120;28;20122;-71
2022/05/16 07:19:52;;;;;;;22.65;13.50;;;;;;;18.78;60.78;101253.25;4951950;28;20089;-71
2022/05/16 07:22:24;;;;;;;23.83;13.25;;;;;;;18.82;61.23;101255.00;4951797;28;20075;-71
2022/05/16 07:24:51;;;;;;;25.80;13.32;;;;;;;18.86;60.80;101259.41;4951743;28;20023;-71
2022/05/16 07:30:03;;;;;;;29.05;14.00;;;;;;;18.93;61.01;101258.50;4951320;28;20569;-71
2022/05/16 07:32:33;;;;;;;30.20;13.70;;;;;;;18.98;60.94;101262.91;4951526;28;20035;-71
2022/05/16 07:35:05;;;;;;;29.33;13.98;;;;;;;19.00;60.87;101258.47;4951529;28;20376;-71
2022/05/16 07:37:31;;;;;;;22.70;13.13;;;;;;;19.04;60.95;101261.06;4952421;28;20039;-71
2022/05/16 07:39:58;;;;;;;28.08;12.38;;;;;;;19.09;60.95;101263.72;4951686;28;20027;-71
2022/05/16 07:42:23;;;;;;;27.02;13.43;;;;;;;19.15;61.21;101260.16;4950813;28;20031;-76
2022/05/16 07:44:50;;;;;;;23.17;12.40;;;;;;;19.20;61.37;101266.28;4952509;28;20038;-76
2022/05/16 07:47:15;;;;;;;25.00;12.52;;;;;;;19.23;61.22;101275.09;4951186;28;20073;-77
2022/05/16 07:49:40;;;;;;;20.95;12.05;;;;;;;19.32;62.01;101270.63;4951558;28;20491;-79
2022/05/16 07:52:06;;;;;;;24.17;12.07;;;;;;;19.36;61.40;101270.59;4951873;28;20110;-79
2022/05/16 07:54:32;;;;;;;25.38;12.13;;;;;;;19.39;61.23;101275.00;4950353;28;20050;-78
2022/05/16 07:56:57;;;;;;;24.75;12.43;;;;;;;19.42;61.97;101277.59;4951640;28;20051;-77
2022/05/16 07:59:22;;;;;;;23.48;11.68;;;;;;;19.46;61.32;101279.34;4951050;28;20023;-77
2022/05/16 08:01:48;;;;;;;20.60;11.38;;;;;;;19.54;62.33;101285.47;4948924;28;20130;-78
2022/05/16 08:04:14;;;;;;;22.00;11.20;;;;;;;19.56;60.70;101288.97;4951100;28;20015;-78
2022/05/16 08:06:40;;;;;;;23.08;11.18;;;;;;;19.63;61.24;101279.25;4950175;28;20023;-78
2022/05/16 08:11:49;;;;;;;20.30;10.82;;;;;;;19.72;61.31;101286.22;4950988;28;20062;-76
2022/05/16 08:14:14;;;;;;;18.52;10.93;;;;;;;19.77;61.19;101285.31;4951881;28;20027;-77
2022/05/16 08:16:39;;;;;;;19.08;10.63;;;;;;;19.79;61.26;101285.34;4948726;28;20402;-76
2022/05/16 08:19:05;;;;;;;22.30;11.13;;;;;;;19.84;61.67;101288.81;4952917;28;20027;-76
2022/05/16 08:21:30;;;;;;;20.90;11.90;;;;;;;19.91;61.89;101287.00;4955216;28;20023;-76
2022/05/16 08:23:56;;;;;;;19.80;10.63;;;;;;;19.93;61.21;101293.19;4954704;28;20565;-77
2022/05/16 08:26:21;;;;;;;18.42;10.23;;;;;;;19.94;61.10;101290.50;4937504;28;20031;-74
2022/05/16 08:28:47;;;;;;;14.88;9.95;;;;;;;19.98;61.18;101300.16;4955823;28;20027;-75
2022/05/16 08:31:12;;;;;;;21.08;10.77;;;;;;;20.03;61.43;101299.25;4936132;28;20032;-75
2022/05/16 08:33:39;;;;;;;19.40;9.77;;;;;;;20.11;61.54;101297.41;4954859;28;20053;-75
2022/05/16 08:41:57;;;;;;;15.75;9.00;;;;;;;20.62;61.36;101287.22;4955131;28;20042;-73
2022/05/16 08:44:29;;;;;;;15.07;7.78;;;;;;;20.76;59.41;101294.16;4944043;28;20035;-73
2022/05/16 08:47:19;;;;;;;15.32;7.00;;;;;;;20.97;59.47;101296.56;4955121;28;20031;-74
2022/05/16 08:50:01;;;;;;;11.40;6.38;;;;;;;21.14;59.35;101290.16;4953788;28;20097;-74
2022/05/16 08:52:34;;;;;;;11.35;6.25;;;;;;;21.31;57.39;101288.16;4953161;28;20031;-74
2022/05/16 08:55:06;;;;;;;14.75;6.50;;;;;;;21.49;58.64;101292.31;4955103;28;20542;-73
2022/05/16 08:57:36;;;;;;;9.88;6.05;;;;;;;21.59;56.63;101293.06;4953540;28;20047;-75
2022/05/16 09:00:10;;;;;;;13.45;6.63;;;;;;;21.64;57.74;101291.25;4954576;28;20035;-75
2022/05/16 09:02:39;;;;;;;11.10;5.80;;;;;;;21.76;57.91;101289.31;4952695;28;20024;-75
2022/05/16 09:05:12;;;;;;;11.40;6.25;;;;;;;21.82;58.36;101287.41;4951566;28;20106;-76
2022/05/16 09:07:51;;;;;;;9.35;5.53;;;;;;;21.97;57.21;101282.75;4949737;28;20566;-76
2022/05/16 09:10:38;;;;;;;11.95;5.78;;;;;;;22.06;56.73;101279.97;4954229;28;20078;-77
2022/05/16 09:13:28;;;;;;;12.43;5.88;;;;;;;22.17;56.49;101283.31;4954115;28;20503;-75
2022/05/16 09:16:19;;;;;;;15.38;5.82;;;;;;;22.23;56.29;101283.19;4954764;28;20027;-75
2022/05/16 09:19:03;;;;;;;10.65;5.40;;;;;;;22.24;56.89;101289.38;4954306;28;20426;-74
2022/05/16 09:21:48;;;;;;;11.25;5.78;;;;;;;22.22;55.96;101288.53;4954828;28;20031;-74
2022/05/16 09:24:19;;;;;;;11.40;5.60;;;;;;;22.30;56.66;101283.94;4952313;28;20027;-75
2022/05/16 09:28:34;;;;;;;11.35;5.43;;;;;;;22.43;56.86;101275.78;4954747;28;20398;-75
2022/05/16 09:30:00;;;;;;;11.15;5.70;;;;;;;22.62;55.57;101289.59;4953383;28;20058;-75
2022/05/16 09:32:30;;;;;;;10.90;5.57;;;;;;;22.70;56.01;101283.22;4953058;28;20491;-75
2022/05/16 09:34:55;;;;;;;10.98;5.70;;;;;;;22.77;55.63;101285.75;4951957;28;20031;-75
2022/05/16 09:37:20;;;;;;;10.52;5.50;;;;;;;22.88;54.22;101291.72;4953215;28;20124;-75
2022/05/16 09:39:50;;;;;;;11.30;5.43;;;;;;;22.93;54.11;101287.19;4954030;28;20101;-75
2022/05/16 09:42:31;;;;;;;10.40;6.00;;;;;;;23.05;55.33;101300.22;4954304;28;20275;-75
2022/05/16 09:45:04;;;;;;;10.85;5.82;;;;;;;23.14;53.34;101295.66;4953088;28;20034;-75
2022/05/16 09:47:29;;;;;;;12.10;6.50;;;;;;;23.16;53.89;101297.38;4933714;29;20102;-74
2022/05/16 09:50:20;;;;;;;11.43;6.17;;;;;;;23.20;54.24;101307.03;4951890;28;20550;-75
2022/05/16 09:52:49;;;;;;;8.10;5.70;;;;;;;23.33;55.05;101307.63;4952662;28;20070;-75
2022/05/16 09:55:29;;;;;;;12.70;6.22;;;;;;;23.44;54.78;101313.56;4952899;28;20439;-75
2022/05/16 09:58:18;;;;;;;10.00;5.18;;;;;;;23.47;53.08;101311.78;4910269;29;20123;-75
2022/05/16 10:00:59;;;;;;;13.77;5.60;;;;;;;23.51;53.23;101321.44;4929626;29;20766;-75
2022/05/16 10:03:32;;;;;;;12.95;5.95;;;;;;;23.54;53.24;101334.66;4915567;29;20044;-75
2022/05/16 10:06:01;;;;;;;12.13;5.45;;;;;;;23.61;52.80;101338.94;4915209;29;20107;-74
2022/05/16 10:08:39;;;;;;;10.23;6.15;;;;;;;23.57;52.95;101331.94;4913826;29;20061;-73
2022/05/16 10:11:24;;;;;;;12.43;6.32;;;;;;;23.56;53.22;101344.34;4914274;29;20032;-74
2022/05/16 10:13:50;;;;;;;13.02;6.75;;;;;;;23.59;52.39;101348.72;4915817;29;20562;-74
2022/05/16 10:16:18;;;;;;;15.00;6.65;;;;;;;23.58;53.00;101342.53;4915033;29;20043;-73
2022/05/16 10:18:48;;;;;;;14.70;6.75;;;;;;;23.52;53.76;101348.00;4913842;29;20039;-74
2022/05/16 10:21:26;;;;;;;15.02;6.80;;;;;;;23.47;53.67;101357.00;4915149;29;20043;-74
2022/05/16 10:23:52;;;;;;;13.02;6.50;;;;;;;23.38;53.50;101360.72;4929788;29;20055;-74
2022/05/16 10:26:22;;;;;;;19.23;7.10;;;;;;;23.39;53.23;101358.03;4915468;29;20055;-73
2022/05/16 10:29:00;;;;;;;12.77;7.28;;;;;;;23.30;53.70;101384.81;4914604;29;20092;-74
2022/05/16 10:34:38;;;;;;;18.15;7.28;;;;;;;23.02;57.90;101411.91;4906248;29;20147;-70
2022/05/16 10:37:05;;;;;;;14.13;7.45;;;;;;;22.85;59.40;101414.03;4914171;29;20059;-70
2022/05/16 10:39:30;;;;;;;15.98;7.68;;;;;;;22.71;59.99;101419.56;4913452;29;20110;-70
2022/05/16 10:42:10;;;;;;;12.07;7.40;;;;;;;22.60;60.14;101425.09;4906415;29;20120;-70
2022/05/16 10:44:46;;;;;;;17.02;7.82;;;;;;;22.51;62.11;101435.88;4913086;29;20024;-70
2022/05/16 10:47:16;;;;;;;15.77;7.55;;;;;;;22.42;61.82;101436.00;4903558;29;20028;-71
2022/05/16 10:49:52;;;;;;;14.15;8.15;;;;;;;22.30;62.08;101432.63;4913267;29;20036;-71
2022/05/16 10:52:36;;;;;;;13.75;8.88;;;;;;;22.31;62.08;101439.69;4913323;29;20024;-70
2022/05/16 10:55:02;;;;;;;13.10;8.35;;;;;;;22.35;64.47;101432.59;4909324;29;20033;-70
2022/05/16 10:57:50;;;;;;;17.08;9.40;;;;;;;22.39;62.91;101436.94;4937483;28;20054;-71
2022/05/16 11:00:21;;;;;;;15.50;8.50;;;;;;;22.51;64.30;101435.88;4938812;28;20071;-71
2022/05/16 11:03:20;;;;;;;16.55;9.32;;;;;;;22.54;62.75;101443.78;4952545;28;20031;-71
2022/05/16 11:06:07;;;;;;;16.92;9.38;;;;;;;22.53;62.40;101439.38;4951963;28;20126;-71
2022/05/16 11:08:59;;;;;;;16.10;9.35;;;;;;;22.55;63.96;101442.88;4951502;28;20068;-71
2022/05/16 11:11:53;;;;;;;15.85;9.07;;;;;;;22.57;62.65;101446.38;4949910;28;20503;-71
2022/05/16 11:14:48;;;;;;;17.35;8.80;;;;;;;22.58;62.00;101445.50;4933128;28;20454;-71
2022/05/16 11:17:27;;;;;;;20.60;9.95;;;;;;;22.56;61.93;101449.94;4951506;28;20426;-71
2022/05/16 11:20:05;;;;;;;18.55;9.15;;;;;;;22.53;63.13;101455.31;4947693;28;20138;-71
2022/05/16 11:22:52;;;;;;;17.43;9.40;;;;;;;22.51;63.16;101454.47;4947293;28;20033;-71
2022/05/16 11:25:27;;;;;;;14.32;9.77;;;;;;;22.46;63.32;101451.00;4948243;28;20058;-75
2022/05/16 11:28:22;;;;;;;18.75;10.95;;;;;;;22.44;62.30;101456.34;4949170;28;20073;-75
2022/05/16 11:30:55;;;;;;;13.73;9.98;;;;;;;22.42;63.67;101462.56;4944570;28;20522;-74
2022/05/16 11:33:54;;;;;;;15.57;10.73;;;;;;;22.40;62.46;101455.53;4933241;29;20478;-75
2022/05/16 11:36:49;;;;;;;14.98;10.82;;;;;;;22.36;62.19;101466.19;4946343;28;20047;-75
2022/05/16 11:39:37;;;;;;;16.52;11.73;;;;;;;22.30;63.47;101469.78;4952379;28;20118;-74
2022/05/16 11:42:20;;;;;;;18.98;12.43;;;;;;;22.26;64.42;101460.13;4952014;28;20035;-74
2022/05/16 11:45:04;;;;;;;16.02;10.95;;;;;;;22.26;65.19;101461.91;4950399;28;20031;-75
2022/05/16 11:47:38;;;;;;;16.30;12.10;;;;;;;22.24;66.80;101464.56;4947672;28;20035;-73
2022/05/16 11:50:24;;;;;;;17.50;11.35;;;;;;;22.30;65.37;101469.78;4951750;28;20024;-72